Terminal Aerodrome Forecast
Issued by NWS

Home | Current Version | Previous Version | Text Only | Print | Product List | Glossary On
Versions: 1 2 3 4 5 6 7 8 9 10 11 12 13 14 15 16 17 18 19
000
FTUS43 KAPX 050248 AAA
TAFMBL
TAF AMD
KMBL 050248Z 0503/0524 00000KT P6SM SCT250
     FM050500 10003KT 5SM BR SCT250
      TEMPO 0507/0511 2SM BR SCT002
     FM051300 20005KT P6SM FEW030
     FM051800 25009KT P6SM SCT250
      AMD LTD TO CLD VIS AND WIND=

USA.gov is the U.S. government's official web portal to all federal, state and local government web resources and services.